Brownsville South Padre Island International Airport
KBRO : now visible

Airfield :











YOU CAN JOIN US ON...

 
LOGIN :

Register | Disclaimer

   EN    FR    IT 

 









Legend :    VFR   Marginal VFR   IFR   Intensive IFR   Very Intensive IFR
Visi :
Ceiling :
>= 8 km
>= 3000ft
5 to 8 km
1000 to 3000 ft
1500m to 5 km
500 to 1000 ft
800 to 1500m
200 to 500 ft
< 800m
< 200 ft
Symbols :   Thunderstorms  Fog  Heavy snow  Heavy precipitations  Wind > 20 kt






- Airport Elevation : 22 ft
- IATA code : BRO


KBRO - Brownsville South Padre Island International

CURRENT METAR :
  • 260553Z AUTO 00000KT 8SM FEW012 OVC022 23/21 A2974 RMK AO2 SLP069 T02330206 10244 20228 402940228 51014 $

EXPIRED METARs :
  • 260453Z AUTO 20004KT 8SM FEW011 OVC020 23/21 A2973 RMK AO2 SLP067 T02280206 TSNO $

TAF KBRO
Valid from the 26 at 06:00 until the 27 at 06:00 UTC


260528Z 2606/2706 00000KT 6SM BR OVC015
TEMPO 2610/2614 3SM BR OVC005
FM261600 04005KT P6SM BKN040
FM262100 07005KT P6SM SCT040
FM270500 00000KT P6SM BKN025
KZHU FIR / North America



MET'MAP, your aeronautical weather chart ! - Copyright ORBIFLY December 2007 - Disclaimer

ORBIFLY MET'MAP TEAM :

Programming & Development : Alexandra Zaïnal
Concept & original design : Baudouin d'Aumeries
Assistance for programming : Marc-Olivier Méhu
Technical & hardware support : Manuel Goepfert

Contact : metmap@orbifly.com




SOURCES & CREDITS :

   NOAA       Earth
Advisory